Time;durP1;ratioP1;P1;durP2;ratioP2;P2;SDS_P1;SDS_P2;PMS_P1;PMS_P2;Temp;Humidity;BMP_temperature;BMP_pressure;BME280_temperature;BME280_humidity;BME280_pressure;Samples;Min_cycle;Max_cycle;Signal;HPM_P1;HPM_P2
2021/06/27 00:00:34;;;;;;;10.55;7.75;;;16.80;80.10;;;;;;5037385;28;20075;-76
2021/06/27 00:02:59;;;;;;;12.82;8.27;;;16.80;80.60;;;;;;5037301;28;20028;-76
2021/06/27 00:05:27;;;;;;;9.45;8.32;;;16.70;81.00;;;;;;5055012;28;20028;-75
2021/06/27 00:07:54;;;;;;;10.88;8.30;;;16.60;81.00;;;;;;5037401;28;20025;-77
2021/06/27 00:10:25;;;;;;;9.38;8.38;;;16.60;81.10;;;;;;5037368;28;20362;-75
2021/06/27 00:12:52;;;;;;;9.05;7.78;;;16.60;81.50;;;;;;5020979;28;20028;-75
2021/06/27 00:15:23;;;;;;;13.20;8.35;;;16.60;81.30;;;;;;5037194;28;20072;-77
2021/06/27 00:17:50;;;;;;;10.35;8.70;;;16.60;81.30;;;;;;5036126;28;20025;-76
2021/06/27 00:20:20;;;;;;;10.13;9.00;;;16.50;81.50;;;;;;5020835;28;20053;-76
2021/06/27 00:22:46;;;;;;;10.63;8.85;;;16.50;81.80;;;;;;5054875;28;20017;-76
2021/06/27 00:25:15;;;;;;;9.77;8.52;;;16.50;82.00;;;;;;5037108;28;20424;-76
2021/06/27 00:27:43;;;;;;;10.52;8.27;;;16.50;82.00;;;;;;5054684;28;20029;-75
2021/06/27 00:30:10;;;;;;;11.32;8.57;;;16.60;81.80;;;;;;5037558;28;20041;-76
2021/06/27 00:32:37;;;;;;;13.57;9.30;;;16.60;81.70;;;;;;5053761;28;20052;-76
2021/06/27 00:35:07;;;;;;;10.30;8.82;;;16.60;81.70;;;;;;5020265;28;20033;-76
2021/06/27 00:37:32;;;;;;;9.73;7.80;;;16.60;81.80;;;;;;5036807;28;20029;-76
2021/06/27 00:39:58;;;;;;;11.35;8.25;;;16.60;81.80;;;;;;5036595;28;20071;-76
2021/06/27 00:42:26;;;;;;;8.60;7.32;;;16.60;81.60;;;;;;5036373;28;20040;-76
2021/06/27 00:44:51;;;;;;;8.93;7.55;;;16.60;81.50;;;;;;5036752;28;20115;-76
2021/06/27 00:47:32;;;;;;;8.57;7.68;;;16.70;81.40;;;;;;5036916;28;20110;-76
2021/06/27 00:49:58;;;;;;;10.65;7.72;;;16.70;81.30;;;;;;5036448;28;20483;-75
2021/06/27 00:52:25;;;;;;;9.02;6.93;;;16.70;81.30;;;;;;5036692;28;20055;-75
2021/06/27 00:54:50;;;;;;;11.52;7.18;;;16.70;81.10;;;;;;5036498;28;20071;-75
2021/06/27 00:57:16;;;;;;;9.13;7.57;;;16.70;81.00;;;;;;5054488;28;20029;-76
2021/06/27 00:59:42;;;;;;;10.02;6.60;;;16.70;81.00;;;;;;5036369;28;20389;-75
2021/06/27 01:02:08;;;;;;;8.07;6.75;;;16.60;81.00;;;;;;5036187;28;20040;-75
2021/06/27 01:04:36;;;;;;;8.35;6.97;;;16.70;81.00;;;;;;5054267;28;20405;-77
2021/06/27 01:07:03;;;;;;;9.77;7.60;;;16.70;80.80;;;;;;5035987;28;20029;-77
2021/06/27 01:09:29;;;;;;;8.55;6.97;;;16.70;80.70;;;;;;5036376;28;20552;-77
2021/06/27 01:11:57;;;;;;;6.97;6.28;;;16.80;80.60;;;;;;5036360;28;20057;-77
2021/06/27 01:14:23;;;;;;;8.65;6.88;;;16.80;80.40;;;;;;5035732;28;20031;-77
2021/06/27 01:16:48;;;;;;;8.45;7.03;;;16.70;81.00;;;;;;5019575;28;20127;-77
2021/06/27 01:19:15;;;;;;;8.18;6.97;;;16.70;80.20;;;;;;5019670;28;20036;-77
2021/06/27 01:21:41;;;;;;;7.57;6.78;;;16.70;80.20;;;;;;5019504;28;20062;-77
2021/06/27 01:24:07;;;;;;;10.88;7.03;;;16.80;80.20;;;;;;5035914;28;20108;-76
2021/06/27 01:26:33;;;;;;;9.65;7.75;;;16.80;80.20;;;;;;5035556;28;20115;-77
2021/06/27 01:28:59;;;;;;;9.32;6.88;;;16.70;80.40;;;;;;5053385;28;20033;-77
2021/06/27 01:31:26;;;;;;;9.02;7.35;;;16.70;80.40;;;;;;5035770;28;20021;-77
2021/06/27 01:33:53;;;;;;;7.13;6.43;;;16.70;80.30;;;;;;5035595;28;20502;-77
2021/06/27 01:36:19;;;;;;;11.02;7.57;;;16.70;80.40;;;;;;5035750;28;20037;-77
2021/06/27 01:38:45;;;;;;;8.60;7.22;;;16.70;80.50;;;;;;5035358;28;20021;-77
2021/06/27 01:41:10;;;;;;;7.18;6.32;;;16.60;81.30;;;;;;5035260;28;20151;-77
2021/06/27 01:43:36;;;;;;;7.35;6.10;;;16.60;80.60;;;;;;5035793;28;20051;-77
2021/06/27 01:46:02;;;;;;;10.82;6.90;;;16.60;80.60;;;;;;5035278;28;20113;-77
2021/06/27 01:48:33;;;;;;;7.43;6.63;;;16.60;80.50;;;;;;5052303;28;20030;-77
2021/06/27 01:51:00;;;;;;;7.60;6.13;;;16.60;80.60;;;;;;5035362;28;20055;-76
2021/06/27 01:53:30;;;;;;;7.55;6.70;;;16.60;80.70;;;;;;5019148;28;20120;-77
2021/06/27 01:56:06;;;;;;;7.80;6.13;;;16.60;80.60;;;;;;5035221;28;20033;-76
2021/06/27 01:58:34;;;;;;;10.30;6.90;;;16.70;80.60;;;;;;5037096;28;20025;-76
2021/06/27 02:01:00;;;;;;;6.30;5.55;;;16.70;80.40;;;;;;5035264;28;20060;-76
2021/06/27 02:03:26;;;;;;;8.77;6.15;;;16.70;80.10;;;;;;5035779;28;20025;-77
2021/06/27 02:05:52;;;;;;;8.48;6.72;;;16.80;79.90;;;;;;5035785;28;20501;-77
2021/06/27 02:08:19;;;;;;;10.40;6.07;;;16.70;79.80;;;;;;5054319;28;20031;-77
2021/06/27 02:10:44;;;;;;;10.63;7.10;;;16.70;79.80;;;;;;5036994;28;20389;-77
2021/06/27 02:13:11;;;;;;;8.38;6.40;;;16.80;79.70;;;;;;5037290;28;20020;-77
2021/06/27 02:15:37;;;;;;;9.25;6.65;;;16.80;79.50;;;;;;5047642;28;20028;-76
2021/06/27 02:18:32;;;;;;;6.07;5.47;;;16.80;79.50;;;;;;5030564;28;20033;-76
2021/06/27 02:21:07;;;;;;;5.90;5.30;;;16.70;79.60;;;;;;5061838;28;20373;-76
2021/06/27 02:23:33;;;;;;;6.13;5.50;;;16.70;79.50;;;;;;5036370;28;20571;-76
2021/06/27 02:26:00;;;;;;;5.22;4.72;;;16.70;79.70;;;;;;5035992;28;20393;-76
2021/06/27 02:28:26;;;;;;;6.07;5.47;;;16.80;79.60;;;;;;5035674;28;20021;-76
2021/06/27 02:30:52;;;;;;;8.45;5.35;;;16.80;79.40;;;;;;5038086;28;20025;-76
2021/06/27 02:33:19;;;;;;;7.38;6.15;;;16.80;78.70;;;;;;5036612;28;20036;-76
2021/06/27 02:35:47;;;;;;;6.10;5.10;;;16.70;77.70;;;;;;5019518;28;20037;-76
2021/06/27 02:38:12;;;;;;;6.68;6.03;;;16.70;77.90;;;;;;5024326;28;20025;-77
2021/06/27 02:40:43;;;;;;;7.07;6.07;;;16.70;78.00;;;;;;5061085;28;20491;-76
2021/06/27 02:43:09;;;;;;;7.22;5.78;;;16.60;78.20;;;;;;5025721;28;20033;-76
2021/06/27 02:45:36;;;;;;;7.00;5.90;;;16.70;78.50;;;;;;5041825;28;20060;-77
2021/06/27 02:48:02;;;;;;;7.57;5.65;;;16.70;78.50;;;;;;5041691;28;20028;-76
2021/06/27 02:50:27;;;;;;;5.97;5.13;;;16.70;79.10;;;;;;5042259;28;20029;-77
2021/06/27 02:52:54;;;;;;;8.80;6.10;;;16.70;78.00;;;;;;5041537;28;20025;-77
2021/06/27 02:55:20;;;;;;;7.18;5.55;;;16.60;77.90;;;;;;5040928;28;20037;-76
2021/06/27 02:57:46;;;;;;;7.00;6.07;;;16.60;78.40;;;;;;5058172;28;20103;-77
2021/06/27 03:00:16;;;;;;;6.78;5.30;;;16.60;78.90;;;;;;5058253;28;20060;-77
2021/06/27 03:02:43;;;;;;;7.93;5.43;;;16.60;79.10;;;;;;5058044;28;20499;-77
2021/06/27 03:05:10;;;;;;;5.88;5.20;;;16.50;79.30;;;;;;5057157;28;20032;-76
2021/06/27 03:07:36;;;;;;;6.82;6.13;;;16.60;79.10;;;;;;5056800;28;20064;-76
2021/06/27 03:10:05;;;;;;;9.38;6.40;;;16.60;79.20;;;;;;5040027;28;20098;-76
2021/06/27 03:12:30;;;;;;;7.47;5.80;;;16.60;79.20;;;;;;5057892;28;20025;-76
2021/06/27 03:14:56;;;;;;;6.80;5.57;;;16.60;79.40;;;;;;5023214;28;20124;-76
2021/06/27 03:17:22;;;;;;;6.90;5.75;;;16.60;79.30;;;;;;5040285;28;20476;-74
2021/06/27 03:19:48;;;;;;;8.95;6.47;;;16.60;79.20;;;;;;5040033;28;20028;-76
2021/06/27 03:22:14;;;;;;;9.93;6.13;;;16.70;79.00;;;;;;5041447;28;20055;-77
2021/06/27 03:24:39;;;;;;;7.50;5.80;;;16.60;78.70;;;;;;5041872;28;20017;-77
2021/06/27 03:27:05;;;;;;;7.05;5.95;;;16.60;78.80;;;;;;5061854;28;20009;-76
2021/06/27 03:29:31;;;;;;;11.00;5.82;;;16.60;78.80;;;;;;5056995;28;20021;-76
2021/06/27 03:31:56;;;;;;;6.43;5.15;;;16.70;78.90;;;;;;5039586;28;20354;-75
2021/06/27 03:34:22;;;;;;;6.03;5.43;;;16.70;78.60;;;;;;5039680;28;20017;-76
2021/06/27 03:36:48;;;;;;;7.07;5.53;;;16.80;78.30;;;;;;5055720;28;20033;-75
2021/06/27 03:39:18;;;;;;;5.35;4.82;;;16.80;78.00;;;;;;5039137;28;20028;-75
2021/06/27 03:41:47;;;;;;;8.38;5.15;;;16.90;78.10;;;;;;5056992;28;20104;-76
2021/06/27 03:44:13;;;;;;;6.75;6.07;;;16.90;78.00;;;;;;5039489;28;20029;-76
2021/06/27 03:46:39;;;;;;;5.35;4.85;;;17.00;77.70;;;;;;5056603;28;20500;-76
2021/06/27 03:49:05;;;;;;;8.15;5.40;;;17.00;77.40;;;;;;5055510;28;20040;-76
2021/06/27 03:51:32;;;;;;;5.60;4.93;;;17.00;77.40;;;;;;5022688;28;20037;-76
2021/06/27 03:53:57;;;;;;;5.88;4.95;;;17.10;77.40;;;;;;5038571;28;20115;-76
2021/06/27 03:56:23;;;;;;;5.78;4.22;;;17.10;77.30;;;;;;5022380;28;20179;-76
2021/06/27 03:58:50;;;;;;;4.82;4.32;;;17.20;76.90;;;;;;5038343;28;20017;-76
2021/06/27 04:01:16;;;;;;;5.80;4.60;;;17.20;76.80;;;;;;5056557;28;20057;-76
2021/06/27 04:03:42;;;;;;;7.82;5.75;;;17.20;77.40;;;;;;5055867;28;20462;-76
2021/06/27 04:06:08;;;;;;;7.63;5.47;;;17.20;76.20;;;;;;5056180;28;20037;-76
2021/06/27 04:08:34;;;;;;;6.28;5.07;;;17.20;76.40;;;;;;5038892;28;20028;-75
2021/06/27 04:11:00;;;;;;;5.15;4.65;;;17.10;76.40;;;;;;5038199;28;20512;-75
2021/06/27 04:13:28;;;;;;;5.45;4.95;;;17.10;76.40;;;;;;5038387;28;20021;-76
2021/06/27 04:15:59;;;;;;;4.65;4.25;;;17.10;76.50;;;;;;5038052;28;20036;-75
2021/06/27 04:18:26;;;;;;;6.53;4.68;;;17.20;76.40;;;;;;5038599;28;20029;-76
2021/06/27 04:20:54;;;;;;;5.85;4.43;;;17.20;76.30;;;;;;5038342;28;20037;-75
2021/06/27 04:23:20;;;;;;;5.30;4.40;;;17.30;76.30;;;;;;5038787;28;20028;-76
2021/06/27 04:25:46;;;;;;;6.43;4.40;;;17.30;76.00;;;;;;5056044;28;20056;-76
2021/06/27 04:28:12;;;;;;;8.88;5.25;;;17.40;75.80;;;;;;5038167;28;20044;-76
2021/06/27 04:30:40;;;;;;;6.68;5.72;;;17.50;75.80;;;;;;5055941;28;20025;-75
2021/06/27 04:33:07;;;;;;;8.65;5.88;;;17.40;75.00;;;;;;5037805;28;20040;-75
2021/06/27 04:35:36;;;;;;;5.28;4.68;;;17.40;74.90;;;;;;5038416;28;20036;-75
2021/06/27 04:38:06;;;;;;;6.10;4.40;;;17.30;75.30;;;;;;5038161;28;20013;-75
2021/06/27 04:40:33;;;;;;;6.63;4.80;;;17.30;75.50;;;;;;5037974;28;20033;-76
2021/06/27 04:42:59;;;;;;;7.25;5.18;;;17.30;75.60;;;;;;5037681;28;20025;-76
2021/06/27 04:45:25;;;;;;;9.70;6.07;;;17.10;75.70;;;;;;5037847;28;20028;-75
2021/06/27 04:47:50;;;;;;;9.57;5.60;;;17.10;76.10;;;;;;5055794;28;20032;-75
2021/06/27 04:50:16;;;;;;;6.88;5.43;;;17.10;76.50;;;;;;5037665;28;20393;-75
2021/06/27 04:52:42;;;;;;;6.82;5.85;;;17.10;76.40;;;;;;5036903;28;20067;-75
2021/06/27 04:55:08;;;;;;;5.30;4.80;;;17.10;76.20;;;;;;5036491;28;20063;-76
2021/06/27 04:57:35;;;;;;;6.47;5.30;;;17.20;76.00;;;;;;5036691;28;20029;-75
2021/06/27 05:00:04;;;;;;;6.68;5.97;;;17.30;76.10;;;;;;5053224;28;20380;-76
2021/06/27 05:02:29;;;;;;;8.63;5.47;;;17.30;76.10;;;;;;5036322;28;20443;-75
2021/06/27 05:04:55;;;;;;;7.63;6.85;;;17.30;76.10;;;;;;5054334;28;20021;-76
2021/06/27 05:07:22;;;;;;;19.02;13.45;;;17.30;76.00;;;;;;5054764;28;20100;-76
2021/06/27 05:09:49;;;;;;;12.80;9.50;;;17.40;76.30;;;;;;5036521;28;20028;-76
2021/06/27 05:12:15;;;;;;;6.75;6.05;;;17.50;76.30;;;;;;5054767;28;20021;-76
2021/06/27 05:14:41;;;;;;;6.25;5.43;;;17.60;76.30;;;;;;5036686;28;20016;-75
2021/06/27 05:17:07;;;;;;;6.85;4.95;;;17.60;76.00;;;;;;5036549;28;20033;-76
2021/06/27 05:19:33;;;;;;;6.93;5.97;;;17.70;76.00;;;;;;5020298;28;20085;-76
2021/06/27 05:21:58;;;;;;;5.43;4.93;;;17.70;75.70;;;;;;5036164;28;20591;-75
2021/06/27 05:24:26;;;;;;;5.75;4.78;;;17.70;75.70;;;;;;5053330;28;20025;-75
2021/06/27 05:26:51;;;;;;;6.15;5.32;;;17.80;75.70;;;;;;5017965;28;20413;-75
2021/06/27 05:29:17;;;;;;;5.53;5.03;;;17.80;75.60;;;;;;5018337;28;20028;-75
2021/06/27 05:31:43;;;;;;;5.55;5.05;;;17.90;75.80;;;;;;5016021;28;20026;-75
2021/06/27 05:34:09;;;;;;;7.22;6.18;;;18.00;75.60;;;;;;5033205;28;20030;-75
2021/06/27 05:36:37;;;;;;;17.42;9.23;;;18.00;74.80;;;;;;5033583;28;20120;-75
2021/06/27 05:39:07;;;;;;;6.82;6.13;;;18.00;74.80;;;;;;5016105;28;20029;-75
2021/06/27 05:41:33;;;;;;;6.90;5.57;;;18.10;74.60;;;;;;5016159;28;20049;-76
2021/06/27 05:43:59;;;;;;;7.15;6.45;;;18.20;74.50;;;;;;5016038;28;20021;-75
2021/06/27 05:46:26;;;;;;;7.75;5.53;;;18.30;74.50;;;;;;5015965;28;20021;-75
2021/06/27 05:48:53;;;;;;;7.18;5.53;;;18.50;74.60;;;;;;4983687;28;20063;-76
2021/06/27 05:51:18;;;;;;;6.88;5.70;;;18.60;74.00;;;;;;5033524;28;20021;-77
2021/06/27 05:53:44;;;;;;;5.93;4.93;;;18.60;73.80;;;;;;5015957;28;20049;-74
2021/06/27 05:56:11;;;;;;;6.97;5.50;;;18.70;73.70;;;;;;5015522;28;20478;-77
2021/06/27 05:58:38;;;;;;;6.95;5.10;;;18.70;74.20;;;;;;5016248;28;20026;-75
2021/06/27 06:01:12;;;;;;;7.30;4.75;;;18.70;74.20;;;;;;5015465;28;20423;-75
2021/06/27 06:03:38;;;;;;;7.28;6.07;;;18.70;74.00;;;;;;5016102;28;20509;-75
2021/06/27 06:06:06;;;;;;;7.35;5.70;;;18.70;73.80;;;;;;5033235;28;20025;-75
2021/06/27 06:08:32;;;;;;;6.57;5.90;;;18.70;74.40;;;;;;5033095;28;20025;-75
2021/06/27 06:10:59;;;;;;;6.43;5.72;;;18.80;74.10;;;;;;5014515;28;20068;-76
2021/06/27 06:13:27;;;;;;;6.40;5.80;;;18.90;73.90;;;;;;5014981;28;20026;-75
2021/06/27 06:15:53;;;;;;;8.75;6.65;;;19.10;73.40;;;;;;5015062;28;20033;-74
2021/06/27 06:18:18;;;;;;;12.48;10.27;;;19.30;72.80;;;;;;5015122;28;20017;-75
2021/06/27 06:20:44;;;;;;;9.80;6.93;;;19.30;72.30;;;;;;5015131;28;20021;-76
2021/06/27 06:23:09;;;;;;;6.53;5.93;;;19.40;72.10;;;;;;5015066;28;20410;-76
2021/06/27 06:25:35;;;;;;;8.43;6.18;;;19.40;72.50;;;;;;5014651;28;20116;-75
2021/06/27 06:28:01;;;;;;;8.68;6.82;;;19.60;72.00;;;;;;5014708;28;20025;-74
2021/06/27 06:30:27;;;;;;;7.03;5.85;;;19.80;72.10;;;;;;5015214;28;20041;-74
2021/06/27 06:32:52;;;;;;;10.15;6.68;;;20.00;71.60;;;;;;5014967;28;20021;-76
2021/06/27 06:35:18;;;;;;;9.05;6.32;;;20.10;70.40;;;;;;5014853;28;20025;-76
2021/06/27 06:37:44;;;;;;;7.50;6.10;;;20.20;70.20;;;;;;5014835;28;20064;-75
2021/06/27 06:40:11;;;;;;;4.95;4.47;;;20.30;69.60;;;;;;5032628;28;20053;-75
2021/06/27 06:42:39;;;;;;;6.28;5.25;;;20.30;69.10;;;;;;5031723;28;20123;-77
2021/06/27 06:45:05;;;;;;;5.97;5.35;;;20.40;69.60;;;;;;5014892;28;20025;-76
2021/06/27 06:47:32;;;;;;;5.78;5.18;;;20.50;68.40;;;;;;5014218;28;20025;-75
2021/06/27 06:49:58;;;;;;;6.35;5.72;;;20.60;68.40;;;;;;5032406;28;20025;-76
2021/06/27 06:52:25;;;;;;;8.55;6.60;;;20.60;70.00;;;;;;4998387;28;20092;-76
2021/06/27 06:54:50;;;;;;;6.72;5.72;;;20.70;70.20;;;;;;5014819;28;20025;-75
2021/06/27 06:57:16;;;;;;;8.82;6.38;;;20.80;70.00;;;;;;5014908;28;20036;-75
2021/06/27 06:59:42;;;;;;;5.38;4.82;;;20.90;69.60;;;;;;5014420;28;20108;-75
2021/06/27 07:02:08;;;;;;;7.90;6.20;;;21.00;69.40;;;;;;5014553;28;20033;-76
2021/06/27 07:04:34;;;;;;;9.30;5.68;;;21.20;69.00;;;;;;5014433;28;20040;-77
2021/06/27 07:07:00;;;;;;;8.32;5.97;;;21.40;69.40;;;;;;5014488;28;20037;-76
2021/06/27 07:09:26;;;;;;;6.03;5.18;;;21.40;68.00;;;;;;5014807;28;20022;-75
2021/06/27 07:11:51;;;;;;;5.90;5.35;;;21.70;67.80;;;;;;5014540;28;20483;-75
2021/06/27 07:14:17;;;;;;;5.68;5.07;;;21.80;66.80;;;;;;5014510;28;20022;-76
2021/06/27 07:16:44;;;;;;;4.88;4.47;;;22.00;66.00;;;;;;5014379;28;20128;-78
2021/06/27 07:19:09;;;;;;;6.72;4.88;;;22.10;65.40;;;;;;5014663;28;20044;-76
2021/06/27 07:21:37;;;;;;;4.97;4.47;;;22.20;64.50;;;;;;4998091;28;20033;-76
2021/06/27 07:24:03;;;;;;;4.68;4.28;;;22.30;64.50;;;;;;5032097;28;20050;-77
2021/06/27 07:26:29;;;;;;;6.28;4.90;;;22.30;63.60;;;;;;5015699;28;20022;-74
2021/06/27 07:28:54;;;;;;;4.13;3.72;;;22.30;63.90;;;;;;5018000;28;20028;-78
2021/06/27 07:31:20;;;;;;;3.15;2.85;;;22.50;63.70;;;;;;5018031;28;20025;-77
2021/06/27 07:33:46;;;;;;;3.67;3.28;;;22.60;60.90;;;;;;5018145;28;20104;-76
2021/06/27 07:36:12;;;;;;;8.32;7.38;;;22.70;60.20;;;;;;5035483;28;20045;-84
2021/06/27 07:38:38;;;;;;;5.50;4.97;;;22.80;61.00;;;;;;5018383;28;20105;-82
2021/06/27 07:41:04;;;;;;;3.35;3.05;;;22.90;61.30;;;;;;5018455;28;20557;-82
2021/06/27 07:43:31;;;;;;;2.97;2.65;;;23.10;60.60;;;;;;5020169;28;20067;-81
2021/06/27 07:45:57;;;;;;;12.65;4.45;;;23.30;60.00;;;;;;5005978;28;20152;-82
2021/06/27 07:48:23;;;;;;;7.10;3.20;;;23.40;58.50;;;;;;5038893;28;20017;-81
2021/06/27 07:50:50;;;;;;;4.25;2.78;;;23.60;58.20;;;;;;5025886;28;20109;-81
2021/06/27 07:53:15;;;;;;;3.35;2.83;;;23.70;56.20;;;;;;5018223;28;20025;-82
2021/06/27 07:55:41;;;;;;;5.03;2.38;;;23.80;56.20;;;;;;5035856;28;20056;-82
2021/06/27 07:58:09;;;;;;;2.20;2.00;;;23.70;52.90;;;;;;5018209;28;20096;-81
2021/06/27 08:00:39;;;;;;;2.53;2.00;;;23.60;52.70;;;;;;5020098;28;20076;-81
2021/06/27 08:03:05;;;;;;;2.10;1.90;;;23.60;52.90;;;;;;5018901;28;20028;-81
2021/06/27 08:05:31;;;;;;;6.75;2.10;;;23.60;53.50;;;;;;5002415;28;20029;-82
2021/06/27 08:08:02;;;;;;;2.00;1.80;;;23.60;52.10;;;;;;5018625;28;20026;-82
2021/06/27 08:10:33;;;;;;;1.83;1.73;;;23.70;51.70;;;;;;5036210;28;20065;-82
2021/06/27 08:13:00;;;;;;;2.70;2.10;;;23.70;50.60;;;;;;5010092;28;20553;-82
2021/06/27 08:15:28;;;;;;;3.67;2.00;;;23.70;51.20;;;;;;5000924;28;20148;-82
2021/06/27 08:17:54;;;;;;;2.95;1.90;;;23.60;49.70;;;;;;5016999;28;20060;-82
2021/06/27 08:20:23;;;;;;;2.30;1.80;;;23.70;50.00;;;;;;5017139;28;20462;-82
2021/06/27 08:22:51;;;;;;;2.53;1.80;;;23.80;50.90;;;;;;5034831;28;20453;-82
2021/06/27 08:25:19;;;;;;;2.20;2.00;;;23.90;50.00;;;;;;5017411;28;20085;-82
2021/06/27 08:27:45;;;;;;;2.50;2.22;;;23.80;49.20;;;;;;5000726;28;20478;-82
2021/06/27 08:30:18;;;;;;;2.85;1.90;;;23.90;49.90;;;;;;5017138;28;20516;-83
2021/06/27 08:32:45;;;;;;;2.00;1.90;;;24.00;50.40;;;;;;5016459;28;20029;-81
2021/06/27 08:35:14;;;;;;;3.33;1.70;;;24.20;51.00;;;;;;5018494;28;20033;-83
2021/06/27 08:37:42;;;;;;;1.70;1.60;;;24.40;49.70;;;;;;5025870;28;20531;-82
2021/06/27 08:40:10;;;;;;;2.10;1.50;;;24.50;48.40;;;;;;5019784;28;20068;-81
2021/06/27 08:42:37;;;;;;;2.20;2.00;;;24.70;47.50;;;;;;5020446;28;20034;-82
2021/06/27 08:45:06;;;;;;;3.00;1.70;;;24.60;46.50;;;;;;5001021;28;20029;-82
2021/06/27 08:47:35;;;;;;;1.75;1.65;;;24.60;45.80;;;;;;5034511;28;20083;-81
2021/06/27 08:50:05;;;;;;;1.80;1.70;;;24.50;44.50;;;;;;5016827;28;20053;-81
2021/06/27 08:52:33;;;;;;;1.95;1.83;;;24.40;44.90;;;;;;5017322;28;20071;-81
2021/06/27 08:55:04;;;;;;;3.78;1.90;;;24.60;45.90;;;;;;5034359;28;20025;-81
2021/06/27 08:57:31;;;;;;;1.60;1.50;;;24.70;45.60;;;;;;5016727;28;20112;-81
2021/06/27 09:00:00;;;;;;;2.45;1.73;;;24.80;45.30;;;;;;5014767;28;20049;-80
2021/06/27 09:02:26;;;;;;;2.00;1.75;;;25.10;45.30;;;;;;5000437;28;20128;-81
2021/06/27 09:05:02;;;;;;;3.35;1.60;;;25.10;43.90;;;;;;5016533;28;20076;-80
2021/06/27 09:07:30;;;;;;;1.92;1.83;;;25.00;42.50;;;;;;5016388;28;20032;-81
2021/06/27 09:10:16;;;;;;;2.53;2.15;;;25.00;43.80;;;;;;5016579;28;20492;-82
2021/06/27 09:12:58;;;;;;;3.53;1.65;;;25.20;44.30;;;;;;5016658;28;20120;-80
2021/06/27 09:15:52;;;;;;;4.35;3.50;;;25.40;44.50;;;;;;4999937;28;20366;-80
2021/06/27 09:18:24;;;;;;;1.73;1.63;;;25.60;43.60;;;;;;5032078;28;20041;-80
2021/06/27 09:21:07;;;;;;;3.22;1.58;;;25.80;41.50;;;;;;5033918;28;20107;-81
2021/06/27 09:23:36;;;;;;;2.10;1.80;;;25.90;41.20;;;;;;5016391;28;20082;-82
2021/06/27 09:26:03;;;;;;;3.45;3.15;;;26.00;41.10;;;;;;5016078;28;20029;-81
2021/06/27 09:28:45;;;;;;;8.25;6.72;;;26.10;40.50;;;;;;5016204;28;20037;-81
2021/06/27 09:31:30;;;;;;;3.97;3.33;;;26.30;40.00;;;;;;5016120;28;20030;-82
2021/06/27 09:34:02;;;;;;;1.73;1.50;;;26.30;39.50;;;;;;5033704;28;20025;-81
2021/06/27 09:36:31;;;;;;;3.05;2.38;;;26.40;39.20;;;;;;5015821;28;20084;-81
2021/06/27 09:39:12;;;;;;;3.17;2.90;;;26.40;38.00;;;;;;5015842;28;20025;-82
2021/06/27 09:41:51;;;;;;;2.50;2.10;;;26.60;38.00;;;;;;4999998;28;20489;-82
2021/06/27 09:44:19;;;;;;;1.70;1.20;;;26.70;36.50;;;;;;4997161;28;20048;-81
2021/06/27 09:46:52;;;;;;;1.50;1.40;;;26.80;35.90;;;;;;5025775;28;20032;-82
2021/06/27 09:49:31;;;;;;;1.42;1.33;;;26.90;35.80;;;;;;5015271;28;20456;-82
2021/06/27 09:52:08;;;;;;;1.83;1.27;;;27.00;36.90;;;;;;5033497;28;20036;-82
2021/06/27 09:54:36;;;;;;;1.55;1.45;;;27.10;36.10;;;;;;5015775;28;20091;-81
2021/06/27 09:57:02;;;;;;;1.60;1.50;;;27.10;36.90;;;;;;4983488;28;20123;-81
2021/06/27 09:59:36;;;;;;;3.05;1.67;;;27.10;37.40;;;;;;5014951;28;20187;-81
2021/06/27 10:02:03;;;;;;;2.10;1.80;;;26.90;36.70;;;;;;5015557;28;20060;-80
2021/06/27 10:04:36;;;;;;;2.10;1.90;;;26.70;37.00;;;;;;4999118;28;20037;-81
2021/06/27 10:07:05;;;;;;;1.70;1.55;;;26.50;36.60;;;;;;4983275;28;20029;-81
2021/06/27 10:09:39;;;;;;;1.88;1.42;;;26.50;38.40;;;;;;5037949;28;20501;-83
2021/06/27 10:12:20;;;;;;;1.80;1.40;;;26.80;38.60;;;;;;5016669;28;20021;-80
2021/06/27 10:14:53;;;;;;;1.52;1.42;;;27.00;39.10;;;;;;5013455;28;20029;-81
2021/06/27 10:17:25;;;;;;;2.53;1.60;;;27.30;37.80;;;;;;5034381;28;20485;-83
2021/06/27 10:19:54;;;;;;;3.33;1.63;;;27.50;36.80;;;;;;5015343;28;20029;-81
2021/06/27 10:22:23;;;;;;;2.10;1.48;;;27.80;37.00;;;;;;4999129;28;20036;-81
2021/06/27 10:24:50;;;;;;;1.60;1.50;;;28.00;36.40;;;;;;5015437;28;20052;-82
2021/06/27 10:27:15;;;;;;;2.03;1.90;;;28.10;35.70;;;;;;5015134;28;20091;-83
2021/06/27 10:29:51;;;;;;;2.30;1.35;;;28.20;34.60;;;;;;5015574;28;20025;-81
2021/06/27 10:32:19;;;;;;;2.72;1.20;;;28.30;33.60;;;;;;5013310;28;20040;-82
2021/06/27 10:34:45;;;;;;;1.50;1.40;;;28.50;33.90;;;;;;5016098;28;20026;-80
2021/06/27 10:37:19;;;;;;;1.70;1.50;;;28.50;33.50;;;;;;5015244;28;20037;-82
2021/06/27 10:40:02;;;;;;;1.50;1.40;;;28.50;33.70;;;;;;5015336;28;20052;-81
2021/06/27 10:42:47;;;;;;;1.90;1.55;;;28.60;35.20;;;;;;5032926;28;20022;-81
2021/06/27 10:45:14;;;;;;;4.78;1.70;;;28.90;35.40;;;;;;5015012;28;20053;-82
2021/06/27 10:47:44;;;;;;;1.95;1.45;;;29.10;34.80;;;;;;4998587;28;20026;-81
2021/06/27 10:50:14;;;;;;;1.48;1.38;;;29.00;34.70;;;;;;5032647;28;20374;-82
2021/06/27 10:53:00;;;;;;;1.98;1.70;;;29.10;35.20;;;;;;5014984;28;20079;-81
2021/06/27 10:55:41;;;;;;;1.42;1.33;;;29.10;35.40;;;;;;5014910;28;20503;-82
2021/06/27 10:58:12;;;;;;;1.52;1.40;;;29.20;34.50;;;;;;5014965;28;20057;-80
2021/06/27 11:00:56;;;;;;;1.65;1.40;;;29.30;33.90;;;;;;5015057;28;20053;-82
2021/06/27 11:03:34;;;;;;;1.75;1.63;;;29.40;33.40;;;;;;5017583;28;20079;-81
2021/06/27 11:06:09;;;;;;;2.30;1.80;;;29.40;33.70;;;;;;5034358;28;20065;-80
2021/06/27 11:08:43;;;;;;;1.98;1.60;;;29.30;34.20;;;;;;5016350;28;20139;-82
2021/06/27 11:11:20;;;;;;;1.75;1.60;;;29.20;33.40;;;;;;5017513;28;20027;-82
2021/06/27 11:14:23;;;;;;;2.92;1.80;;;29.20;33.60;;;;;;5037037;28;20036;-82
2021/06/27 11:17:05;;;;;;;1.95;1.80;;;29.30;32.80;;;;;;4967695;28;20035;-82
2021/06/27 11:19:40;;;;;;;1.55;1.40;;;29.10;33.10;;;;;;4965248;28;20094;-82
2021/06/27 11:22:26;;;;;;;;;;;29.00;34.00;;;;;;4960987;28;20046;-81
2021/06/27 11:24:54;;;;;;;1.80;1.60;;;29.00;33.90;;;;;;4981687;28;19913;-83
2021/06/27 11:27:30;;;;;;;4.45;1.80;;;29.20;33.70;;;;;;5017187;28;20030;-81
2021/06/27 11:30:39;;;;;;;1.63;1.20;;;29.40;33.70;;;;;;5017267;28;20547;-86
2021/06/27 11:33:26;;;;;;;1.73;1.63;;;29.70;33.00;;;;;;5003976;28;20140;-86
2021/06/27 11:35:53;;;;;;;1.70;1.60;;;29.80;32.80;;;;;;5017393;28;20063;-87
2021/06/27 11:38:49;;;;;;;1.42;1.30;;;29.90;33.40;;;;;;5034264;28;20029;-82
2021/06/27 11:41:20;;;;;;;2.40;2.07;;;30.10;33.50;;;;;;5017456;28;20029;-86
2021/06/27 11:44:17;;;;;;;1.77;1.60;;;30.20;33.10;;;;;;5034784;28;20100;-85
2021/06/27 11:47:21;;;;;;;1.60;1.50;;;30.30;32.80;;;;;;5017197;28;20423;-84
2021/06/27 11:50:31;;;;;;;2.30;1.60;;;30.40;32.50;;;;;;5027143;28;20087;-79
2021/06/27 11:53:25;;;;;;;1.67;1.58;;;30.40;32.50;;;;;;5034463;28;20021;-87
2021/06/27 11:57:17;;;;;;;2.72;1.70;;;30.60;32.70;;;;;;5034126;28;20052;-82
2021/06/27 12:00:39;;;;;;;2.05;1.60;;;30.70;32.30;;;;;;4992052;28;20338;-83
2021/06/27 12:03:43;;;;;;;1.70;1.45;;;30.50;31.70;;;;;;4474832;28;15048506;-81
2021/06/27 12:06:12;;;;;;;2.08;1.70;;;30.10;32.90;;;;;;4977702;28;20038;-81
2021/06/27 12:08:49;;;;;;;2.58;1.60;;;29.80;32.80;;;;;;4993962;28;20042;-80
2021/06/27 12:11:18;;;;;;;1.80;1.70;;;29.70;33.20;;;;;;4977731;28;20042;-80
2021/06/27 12:13:47;;;;;;;1.92;1.45;;;29.80;33.20;;;;;;4993216;28;20035;-80
2021/06/27 12:16:15;;;;;;;1.70;1.60;;;30.10;33.30;;;;;;4993653;28;20053;-79
2021/06/27 12:18:43;;;;;;;1.55;1.45;;;30.30;33.10;;;;;;4993826;28;20058;-81
2021/06/27 12:21:14;;;;;;;3.88;1.55;;;30.30;31.80;;;;;;4977439;28;20030;-77
2021/06/27 12:23:46;;;;;;;1.80;1.70;;;30.50;32.00;;;;;;4977549;28;20030;-78
2021/06/27 12:26:20;;;;;;;2.10;1.40;;;30.60;31.60;;;;;;4976931;28;20070;-80
2021/06/27 12:28:53;;;;;;;1.70;1.60;;;30.90;31.50;;;;;;4977346;28;20113;-79
2021/06/27 12:31:27;;;;;;;2.95;1.63;;;31.20;31.40;;;;;;5008206;28;20134;-79
2021/06/27 12:34:08;;;;;;;2.05;1.70;;;31.30;30.90;;;;;;5017508;28;20486;-80
2021/06/27 12:36:54;;;;;;;3.17;1.70;;;31.30;31.60;;;;;;5017133;28;20041;-82
2021/06/27 12:39:30;;;;;;;1.75;1.65;;;31.10;31.50;;;;;;5032497;28;20041;-79
2021/06/27 12:42:17;;;;;;;1.60;1.50;;;30.90;30.90;;;;;;5034806;28;20033;-81
2021/06/27 12:44:45;;;;;;;1.77;1.67;;;30.70;31.20;;;;;;5016928;28;20037;-82
2021/06/27 12:47:27;;;;;;;2.60;1.90;;;30.80;31.40;;;;;;5016785;28;20036;-80
2021/06/27 12:49:56;;;;;;;2.10;1.98;;;30.60;31.80;;;;;;5016828;28;20022;-79
2021/06/27 12:52:23;;;;;;;2.63;1.50;;;30.50;32.10;;;;;;5016965;28;20036;-81
2021/06/27 12:54:51;;;;;;;2.20;2.00;;;30.10;32.20;;;;;;5016648;28;20079;-80
2021/06/27 12:57:22;;;;;;;1.52;1.38;;;30.20;32.80;;;;;;5034012;28;20033;-79
2021/06/27 12:59:56;;;;;;;3.80;1.98;;;30.30;33.30;;;;;;5000064;28;20038;-80